sensor_id;sensor_type;location;lat;lon;timestamp;P1;durP1;ratioP1;P2;durP2;ratioP2
30337;SDS011;17143;51.888;5.408;2022-10-03T00:09:50;6.03;;;1.67;;
30337;SDS011;17143;51.888;5.408;2022-10-03T00:25:00;4.53;;;1.80;;
30337;SDS011;17143;51.888;5.408;2022-10-03T01:11:05;4.73;;;1.43;;
30337;SDS011;17143;51.888;5.408;2022-10-03T01:41:46;6.20;;;1.70;;
30337;SDS011;17143;51.888;5.408;2022-10-03T01:56:56;2.33;;;1.63;;
30337;SDS011;17143;51.888;5.408;2022-10-03T02:12:07;5.20;;;1.57;;
30337;SDS011;17143;51.888;5.408;2022-10-03T02:27:21;5.10;;;1.60;;
30337;SDS011;17143;51.888;5.408;2022-10-03T02:58:37;4.83;;;1.47;;
30337;SDS011;17143;51.888;5.408;2022-10-03T03:29:49;5.83;;;1.60;;
30337;SDS011;17143;51.888;5.408;2022-10-03T03:45:03;5.00;;;1.57;;
30337;SDS011;17143;51.888;5.408;2022-10-03T04:00:15;6.73;;;1.97;;
30337;SDS011;17143;51.888;5.408;2022-10-03T04:15:26;5.47;;;1.50;;
30337;SDS011;17143;51.888;5.408;2022-10-03T04:30:39;3.40;;;1.97;;
30337;SDS011;17143;51.888;5.408;2022-10-03T04:45:56;3.73;;;1.93;;
30337;SDS011;17143;51.888;5.408;2022-10-03T05:01:13;6.17;;;1.57;;
30337;SDS011;17143;51.888;5.408;2022-10-03T05:16:22;6.40;;;1.90;;
30337;SDS011;17143;51.888;5.408;2022-10-03T05:31:36;2.10;;;1.53;;
30337;SDS011;17143;51.888;5.408;2022-10-03T05:47:01;7.20;;;1.97;;
30337;SDS011;17143;51.888;5.408;2022-10-03T06:02:23;4.70;;;2.20;;
30337;SDS011;17143;51.888;5.408;2022-10-03T06:33:55;5.60;;;3.00;;
30337;SDS011;17143;51.888;5.408;2022-10-03T06:49:14;5.57;;;2.00;;
30337;SDS011;17143;51.888;5.408;2022-10-03T07:20:43;7.17;;;2.57;;
30337;SDS011;17143;51.888;5.408;2022-10-03T07:51:35;4.67;;;2.23;;
30337;SDS011;17143;51.888;5.408;2022-10-03T08:06:46;6.77;;;2.97;;
30337;SDS011;17143;51.888;5.408;2022-10-03T08:22:00;11.53;;;2.77;;
30337;SDS011;17143;51.888;5.408;2022-10-03T08:37:18;12.00;;;2.47;;
30337;SDS011;17143;51.888;5.408;2022-10-03T08:52:39;7.23;;;2.23;;
30337;SDS011;17143;51.888;5.408;2022-10-03T09:23:41;5.90;;;1.77;;
30337;SDS011;17143;51.888;5.408;2022-10-03T09:55:06;6.37;;;1.17;;
30337;SDS011;17143;51.888;5.408;2022-10-03T10:10:52;7.90;;;1.33;;
30337;SDS011;17143;51.888;5.408;2022-10-03T10:26:11;5.50;;;1.23;;
30337;SDS011;17143;51.888;5.408;2022-10-03T11:13:40;6.67;;;1.30;;
30337;SDS011;17143;51.888;5.408;2022-10-03T11:29:10;6.50;;;1.10;;
30337;SDS011;17143;51.888;5.408;2022-10-03T11:44:35;3.40;;;1.10;;
30337;SDS011;17143;51.888;5.408;2022-10-03T11:59:55;3.37;;;0.90;;
30337;SDS011;17143;51.888;5.408;2022-10-03T12:15:17;9.47;;;1.00;;
30337;SDS011;17143;51.888;5.408;2022-10-03T12:30:31;3.83;;;1.03;;
30337;SDS011;17143;51.888;5.408;2022-10-03T12:45:43;7.30;;;1.57;;
30337;SDS011;17143;51.888;5.408;2022-10-03T13:00:51;7.93;;;1.27;;
30337;SDS011;17143;51.888;5.408;2022-10-03T13:16:10;3.03;;;1.20;;
30337;SDS011;17143;51.888;5.408;2022-10-03T13:31:19;4.90;;;0.90;;
30337;SDS011;17143;51.888;5.408;2022-10-03T13:46:25;11.67;;;1.60;;
30337;SDS011;17143;51.888;5.408;2022-10-03T14:01:37;6.63;;;1.60;;
30337;SDS011;17143;51.888;5.408;2022-10-03T14:16:50;3.17;;;1.17;;
30337;SDS011;17143;51.888;5.408;2022-10-03T14:32:00;4.37;;;1.20;;
30337;SDS011;17143;51.888;5.408;2022-10-03T14:47:08;9.13;;;1.60;;
30337;SDS011;17143;51.888;5.408;2022-10-03T15:02:22;7.70;;;1.77;;
30337;SDS011;17143;51.888;5.408;2022-10-03T15:17:29;7.03;;;1.57;;
30337;SDS011;17143;51.888;5.408;2022-10-03T15:32:36;9.63;;;1.70;;
30337;SDS011;17143;51.888;5.408;2022-10-03T15:47:42;9.67;;;1.60;;
30337;SDS011;17143;51.888;5.408;2022-10-03T16:02:47;7.23;;;1.43;;
30337;SDS011;17143;51.888;5.408;2022-10-03T16:17:55;6.77;;;1.70;;
30337;SDS011;17143;51.888;5.408;2022-10-03T16:33:06;9.23;;;1.43;;
30337;SDS011;17143;51.888;5.408;2022-10-03T16:48:18;3.90;;;1.37;;
30337;SDS011;17143;51.888;5.408;2022-10-03T17:03:22;6.87;;;2.50;;
30337;SDS011;17143;51.888;5.408;2022-10-03T17:18:27;8.67;;;2.37;;
30337;SDS011;17143;51.888;5.408;2022-10-03T17:33:37;5.63;;;2.10;;
30337;SDS011;17143;51.888;5.408;2022-10-03T17:48:44;6.83;;;2.20;;
30337;SDS011;17143;51.888;5.408;2022-10-03T18:03:54;8.37;;;2.03;;
30337;SDS011;17143;51.888;5.408;2022-10-03T18:19:09;5.50;;;1.93;;
30337;SDS011;17143;51.888;5.408;2022-10-03T18:34:24;7.47;;;2.57;;
30337;SDS011;17143;51.888;5.408;2022-10-03T18:49:32;5.63;;;2.70;;
30337;SDS011;17143;51.888;5.408;2022-10-03T19:04:38;8.23;;;2.50;;
30337;SDS011;17143;51.888;5.408;2022-10-03T19:19:46;6.83;;;2.60;;
30337;SDS011;17143;51.888;5.408;2022-10-03T19:34:51;7.57;;;2.20;;
30337;SDS011;17143;51.888;5.408;2022-10-03T19:49:55;8.50;;;2.70;;
30337;SDS011;17143;51.888;5.408;2022-10-03T20:05:07;12.27;;;3.73;;
30337;SDS011;17143;51.888;5.408;2022-10-03T20:20:19;7.90;;;3.37;;
30337;SDS011;17143;51.888;5.408;2022-10-03T20:35:25;8.13;;;3.80;;
30337;SDS011;17143;51.888;5.408;2022-10-03T20:50:30;12.97;;;4.57;;
30337;SDS011;17143;51.888;5.408;2022-10-03T21:05:37;8.00;;;4.40;;
30337;SDS011;17143;51.888;5.408;2022-10-03T21:20:42;7.20;;;4.67;;
30337;SDS011;17143;51.888;5.408;2022-10-03T21:35:46;7.90;;;4.50;;
30337;SDS011;17143;51.888;5.408;2022-10-03T21:50:51;6.23;;;4.60;;
30337;SDS011;17143;51.888;5.408;2022-10-03T22:05:59;8.27;;;4.33;;
30337;SDS011;17143;51.888;5.408;2022-10-03T22:21:08;7.73;;;4.10;;
30337;SDS011;17143;51.888;5.408;2022-10-03T22:36:18;12.20;;;5.27;;
30337;SDS011;17143;51.888;5.408;2022-10-03T22:51:21;6.80;;;5.60;;
30337;SDS011;17143;51.888;5.408;2022-10-03T23:06:28;9.43;;;5.07;;
30337;SDS011;17143;51.888;5.408;2022-10-03T23:21:44;10.70;;;5.00;;
30337;SDS011;17143;51.888;5.408;2022-10-03T23:36:58;7.10;;;4.30;;
30337;SDS011;17143;51.888;5.408;2022-10-03T23:52:02;5.47;;;4.80;;
